createdAt,value
2018-09-09T00:01:59.729Z,55.45
2018-09-09T00:04:27.438Z,55.93
2018-09-09T00:06:55.100Z,55.84
2018-09-09T00:09:28.152Z,55.85
2018-09-09T00:11:56.090Z,55.03
2018-09-09T00:14:23.795Z,55.79
2018-09-09T00:16:51.492Z,55.36
2018-09-09T00:19:19.204Z,55.23
2018-09-09T00:21:46.877Z,55.80
2018-09-09T00:24:14.633Z,55.10
2018-09-09T00:26:42.351Z,55.28
2018-09-09T00:29:10.089Z,55.70
2018-09-09T00:31:37.786Z,55.12
2018-09-09T00:34:05.539Z,55.04
2018-09-09T00:36:33.251Z,56.01
2018-09-09T00:39:00.949Z,55.85
2018-09-09T00:41:28.669Z,55.89
2018-09-09T00:43:56.558Z,55.20
2018-09-09T00:46:24.266Z,55.90
2018-09-09T00:48:57.259Z,55.91
2018-09-09T00:51:30.203Z,55.20
2018-09-09T00:53:57.874Z,55.46
2018-09-09T00:56:25.557Z,55.90
2018-09-09T00:58:53.255Z,55.97
2018-09-09T01:01:20.976Z,55.22
2018-09-09T01:03:48.729Z,55.99
2018-09-09T01:06:16.432Z,55.96
2018-09-09T01:08:44.144Z,56.00
2018-09-09T01:11:11.870Z,56.18
2018-09-09T01:13:39.549Z,55.70
2018-09-09T01:16:07.351Z,55.46
2018-09-09T01:18:35.054Z,56.00
2018-09-09T01:21:02.757Z,56.13
2018-09-09T01:23:30.475Z,55.20
2018-09-09T01:25:58.454Z,55.25
2018-09-09T01:28:26.175Z,55.14
2018-09-09T01:30:53.824Z,55.94
2018-09-09T01:33:21.585Z,55.88
2018-09-09T01:35:49.333Z,55.99
2018-09-09T01:38:17.262Z,55.90
2018-09-09T01:40:44.940Z,55.58
2018-09-09T01:43:12.645Z,55.57
2018-09-09T01:45:40.401Z,55.15
2018-09-09T01:48:08.074Z,55.05
2018-09-09T01:50:35.778Z,55.29
2018-09-09T01:53:03.770Z,55.48
2018-09-09T01:55:31.464Z,55.98
2018-09-09T01:57:59.282Z,55.98
2018-09-09T02:00:27.049Z,55.91
2018-09-09T02:02:54.758Z,55.23
2018-09-09T02:05:22.452Z,55.97
2018-09-09T02:07:50.159Z,55.15
2018-09-09T02:10:17.859Z,55.17
2018-09-09T02:12:45.573Z,55.73
2018-09-09T02:15:13.326Z,55.40
2018-09-09T02:17:41.129Z,55.69
2018-09-09T02:20:09.038Z,55.21
2018-09-09T02:22:36.721Z,55.28
2018-09-09T02:25:04.525Z,56.02
2018-09-09T02:27:32.297Z,55.46
2018-09-09T02:30:00.022Z,55.97
2018-09-09T02:32:27.666Z,55.33
2018-09-09T02:34:55.359Z,55.19
2018-09-09T02:37:23.128Z,55.99
2018-09-09T02:39:50.886Z,56.06
2018-09-09T02:42:18.581Z,55.25
2018-09-09T02:44:46.288Z,55.61
2018-09-09T02:47:14.005Z,55.64
2018-09-09T02:49:41.737Z,55.24
2018-09-09T02:52:09.575Z,55.48
2018-09-09T02:54:37.357Z,56.02
2018-09-09T02:57:05.168Z,55.87
2018-09-09T02:59:32.890Z,56.11
2018-09-09T03:02:00.665Z,55.43
2018-09-09T03:04:28.365Z,55.38
2018-09-09T03:06:56.183Z,55.40
2018-09-09T03:09:23.925Z,56.27
2018-09-09T03:11:51.672Z,55.33
2018-09-09T03:14:19.393Z,55.42
2018-09-09T03:16:47.151Z,55.40
2018-09-09T03:19:14.830Z,56.24
2018-09-09T03:21:42.578Z,55.85
2018-09-09T03:24:10.432Z,56.20
2018-09-09T03:26:38.158Z,55.37
2018-09-09T03:29:05.953Z,56.10
2018-09-09T03:31:33.656Z,56.19
2018-09-09T03:34:01.426Z,56.03
2018-09-09T03:36:29.169Z,55.94
2018-09-09T03:38:56.909Z,55.76
2018-09-09T03:41:24.642Z,55.37
2018-09-09T03:43:52.393Z,55.49
2018-09-09T03:46:20.142Z,56.25
2018-09-09T03:48:47.898Z,55.54
2018-09-09T03:51:15.810Z,55.49
2018-09-09T03:53:43.553Z,55.47
2018-09-09T03:56:11.337Z,56.24
2018-09-09T03:58:46.051Z,56.12
2018-09-09T04:01:13.684Z,56.22
2018-09-09T04:03:41.412Z,55.49
2018-09-09T04:06:09.071Z,55.50
2018-09-09T04:08:36.721Z,56.14
2018-09-09T04:11:08.708Z,55.45
2018-09-09T04:13:36.576Z,55.86
2018-09-09T04:16:04.282Z,55.68
2018-09-09T04:18:32.010Z,55.59
2018-09-09T04:20:59.777Z,55.59
2018-09-09T04:23:27.521Z,56.13
2018-09-09T04:25:55.213Z,56.27
2018-09-09T04:28:22.881Z,56.29
2018-09-09T04:30:50.603Z,56.03
2018-09-09T04:33:18.253Z,55.54
2018-09-09T04:35:45.917Z,55.65
2018-09-09T04:38:13.656Z,56.38
2018-09-09T04:40:41.331Z,55.72
2018-09-09T04:43:09.086Z,56.29
2018-09-09T04:45:36.786Z,55.53
2018-09-09T04:48:04.540Z,56.26
2018-09-09T04:50:32.210Z,56.20
2018-09-09T04:52:59.938Z,56.32
2018-09-09T04:55:27.690Z,55.68
2018-09-09T04:57:55.469Z,55.92
2018-09-09T05:00:23.155Z,56.34
2018-09-09T05:02:50.908Z,56.29
2018-09-09T05:05:18.626Z,56.03
2018-09-09T05:07:46.408Z,56.26
2018-09-09T05:10:14.196Z,56.25
2018-09-09T05:12:42.008Z,55.61
2018-09-09T05:15:09.729Z,55.89
2018-09-09T05:17:37.430Z,55.52
2018-09-09T05:20:05.461Z,55.55
2018-09-09T05:22:33.194Z,55.48
2018-09-09T05:25:01.021Z,55.83
2018-09-09T05:27:28.702Z,56.23
2018-09-09T05:29:56.427Z,56.17
2018-09-09T05:32:24.111Z,56.11
2018-09-09T05:34:51.914Z,56.07
2018-09-09T05:37:19.788Z,55.98
2018-09-09T05:39:47.646Z,55.12
2018-09-09T05:42:15.314Z,55.28
2018-09-09T05:44:43.036Z,55.06
2018-09-09T05:47:10.864Z,55.08
2018-09-09T05:49:38.681Z,55.02
2018-09-09T05:52:06.362Z,55.68
2018-09-09T05:54:34.030Z,55.84
2018-09-09T05:57:01.685Z,55.13
2018-09-09T05:59:29.352Z,55.79
2018-09-09T06:01:57.093Z,55.25
2018-09-09T06:04:24.828Z,55.59
2018-09-09T06:06:52.606Z,55.28
2018-09-09T06:09:20.329Z,55.13
2018-09-09T06:11:48.059Z,55.16
2018-09-09T06:14:15.744Z,54.38
2018-09-09T06:16:43.535Z,54.85
2018-09-09T06:19:11.257Z,55.10
2018-09-09T06:21:38.966Z,54.24
2018-09-09T06:24:06.696Z,54.21
2018-09-09T06:26:34.372Z,53.64
2018-09-09T06:29:02.101Z,53.76
2018-09-09T06:31:29.843Z,54.83
2018-09-09T06:33:57.570Z,54.55
2018-09-09T06:36:25.182Z,54.37
2018-09-09T06:38:52.885Z,54.51
2018-09-09T06:41:20.705Z,54.28
2018-09-09T06:43:48.372Z,54.67
2018-09-09T06:46:16.084Z,53.86
2018-09-09T06:48:43.822Z,54.49
2018-09-09T06:51:11.533Z,53.64
2018-09-09T06:53:39.230Z,53.47
2018-09-09T06:56:06.942Z,54.13
2018-09-09T06:58:34.731Z,54.26
2018-09-09T07:01:02.417Z,54.07
2018-09-09T07:03:30.120Z,54.10
2018-09-09T07:05:57.879Z,53.38
2018-09-09T07:08:25.592Z,53.37
2018-09-09T07:10:53.319Z,53.03
2018-09-09T07:13:21.246Z,53.75
2018-09-09T07:15:48.946Z,53.06
2018-09-09T07:18:16.945Z,53.02
2018-09-09T07:20:44.942Z,53.96
2018-09-09T07:23:12.736Z,53.02
2018-09-09T07:25:40.763Z,54.17
2018-09-09T07:28:08.672Z,53.97
2018-09-09T07:30:36.680Z,54.11
2018-09-09T07:33:04.396Z,53.55
2018-09-09T07:35:32.780Z,53.42
2018-09-09T07:38:00.765Z,53.50
2018-09-09T07:40:28.549Z,54.24
2018-09-09T07:42:56.238Z,54.17
2018-09-09T07:45:23.894Z,53.43
2018-09-09T07:47:51.585Z,53.38
2018-09-09T07:50:19.338Z,54.13
2018-09-09T07:52:46.991Z,53.12
2018-09-09T07:55:14.859Z,53.36
2018-09-09T07:57:42.521Z,54.29
2018-09-09T08:00:10.162Z,53.56
2018-09-09T08:02:37.805Z,53.42
2018-09-09T08:05:05.529Z,54.16
2018-09-09T08:07:33.169Z,54.00
2018-09-09T08:10:00.819Z,53.53
2018-09-09T08:12:28.472Z,53.66
2018-09-09T08:14:56.115Z,54.40
2018-09-09T08:17:23.778Z,53.50
2018-09-09T08:19:51.437Z,53.34
2018-09-09T08:22:19.083Z,54.15
2018-09-09T08:24:46.725Z,54.20
2018-09-09T08:27:14.353Z,54.48
2018-09-09T08:29:41.990Z,54.40
2018-09-09T08:32:09.663Z,54.40
2018-09-09T08:34:37.332Z,53.54
2018-09-09T08:37:04.991Z,53.67
2018-09-09T08:39:32.645Z,54.30
2018-09-09T08:42:00.345Z,53.41
2018-09-09T08:44:27.977Z,53.73
2018-09-09T08:46:55.637Z,54.42
2018-09-09T08:49:23.275Z,53.41
2018-09-09T08:51:50.988Z,54.02
2018-09-09T08:54:19.846Z,54.03
2018-09-09T08:56:47.501Z,54.44
2018-09-09T08:59:15.295Z,53.52
2018-09-09T09:01:43.219Z,53.66
2018-09-09T09:04:10.917Z,53.89
2018-09-09T09:06:38.625Z,53.84
2018-09-09T09:09:07.503Z,54.27
2018-09-09T09:11:35.161Z,53.69
2018-09-09T09:14:02.811Z,53.59
2018-09-09T09:16:30.470Z,54.00
2018-09-09T09:18:58.134Z,54.16
2018-09-09T09:21:25.769Z,53.34
2018-09-09T09:23:53.456Z,54.18
2018-09-09T09:26:21.115Z,54.11
2018-09-09T09:28:48.776Z,53.98
2018-09-09T09:31:16.473Z,53.46
2018-09-09T09:33:44.089Z,53.46
2018-09-09T09:36:11.726Z,54.25
2018-09-09T09:38:39.405Z,53.46
2018-09-09T09:41:07.057Z,53.46
2018-09-09T09:43:34.817Z,54.20
2018-09-09T09:46:02.437Z,54.11
2018-09-09T09:48:30.146Z,54.22
2018-09-09T09:50:57.850Z,53.33
2018-09-09T09:53:25.577Z,53.38
2018-09-09T09:55:53.162Z,54.11
2018-09-09T09:58:20.814Z,54.33
2018-09-09T10:00:53.907Z,54.12
2018-09-09T10:03:21.806Z,54.37
2018-09-09T10:05:49.518Z,53.58
2018-09-09T10:08:17.442Z,53.76
2018-09-09T10:10:45.298Z,53.69
2018-09-09T10:13:13.088Z,54.49
2018-09-09T10:15:40.940Z,54.43
2018-09-09T10:18:08.695Z,54.04
2018-09-09T10:20:36.534Z,54.49
2018-09-09T10:23:05.775Z,53.75
2018-09-09T10:28:08.818Z,54.54
2018-09-09T10:30:37.028Z,53.77
2018-09-09T10:33:04.709Z,53.77
2018-09-09T10:35:32.389Z,53.82
2018-09-09T10:38:00.229Z,53.47
2018-09-09T10:40:27.898Z,54.52
2018-09-09T10:42:55.910Z,54.57
2018-09-09T10:45:23.542Z,54.00
2018-09-09T10:47:51.205Z,54.74
2018-09-09T10:50:18.850Z,54.04
2018-09-09T10:52:46.486Z,53.86
2018-09-09T10:55:14.106Z,54.72
2018-09-09T10:57:41.741Z,54.56
2018-09-09T11:00:09.390Z,54.70
2018-09-09T11:02:37.044Z,54.72
2018-09-09T11:05:04.722Z,54.06
2018-09-09T11:07:32.390Z,54.73
2018-09-09T11:10:00.049Z,53.91
2018-09-09T11:12:34.182Z,54.34
2018-09-09T11:15:02.670Z,54.86
2018-09-09T11:17:31.100Z,54.37
2018-09-09T11:19:59.403Z,54.92
2018-09-09T11:22:27.590Z,54.10
2018-09-09T11:24:55.259Z,54.34
2018-09-09T11:27:22.892Z,54.80
2018-09-09T11:29:50.537Z,54.40
2018-09-09T11:32:18.178Z,54.94
2018-09-09T11:34:45.809Z,54.15
2018-09-09T11:37:13.446Z,54.03
2018-09-09T11:39:41.087Z,54.90
2018-09-09T11:42:08.741Z,54.20
2018-09-09T11:44:36.461Z,54.15
2018-09-09T11:47:04.309Z,54.06
2018-09-09T11:49:32.948Z,54.93
2018-09-09T11:52:00.649Z,54.11
2018-09-09T11:54:28.475Z,54.92
2018-09-09T11:56:56.155Z,54.76
2018-09-09T11:59:23.853Z,54.15
2018-09-09T12:01:51.601Z,54.55
2018-09-09T12:04:19.391Z,54.93
2018-09-09T12:06:47.127Z,54.67
2018-09-09T12:09:14.845Z,54.52
2018-09-09T12:11:42.574Z,54.01
2018-09-09T12:14:10.293Z,54.27
2018-09-09T12:16:38.323Z,54.08
2018-09-09T12:19:06.110Z,54.93
2018-09-09T12:21:34.181Z,54.66
2018-09-09T12:24:01.945Z,54.86
2018-09-09T12:26:29.673Z,54.15
2018-09-09T12:28:57.382Z,55.00
2018-09-09T12:31:25.314Z,54.26
2018-09-09T12:33:52.962Z,54.19
2018-09-09T12:36:20.699Z,54.71
2018-09-09T12:38:48.395Z,54.78
2018-09-09T12:41:16.036Z,54.68
2018-09-09T12:43:49.106Z,54.84
2018-09-09T12:46:22.021Z,54.79
2018-09-09T12:48:55.110Z,53.99
2018-09-09T12:51:22.751Z,54.78
2018-09-09T12:53:50.393Z,54.06
2018-09-09T12:56:18.060Z,54.36
2018-09-09T12:58:45.725Z,54.85
2018-09-09T13:01:13.434Z,54.83
2018-09-09T13:03:41.130Z,54.75
2018-09-09T13:06:08.749Z,54.85
2018-09-09T13:08:36.394Z,54.53
2018-09-09T13:11:04.054Z,54.15
2018-09-09T13:13:31.673Z,54.89
2018-09-09T13:15:59.301Z,54.19
2018-09-09T13:18:27.054Z,54.76
2018-09-09T13:20:54.740Z,54.13
2018-09-09T13:23:22.379Z,54.46
2018-09-09T13:25:50.052Z,54.84
2018-09-09T13:28:17.690Z,54.32
2018-09-09T13:30:45.335Z,54.78
2018-09-09T13:33:13.061Z,53.91
2018-09-09T13:35:40.700Z,54.45
2018-09-09T13:38:08.333Z,54.11
2018-09-09T13:40:36.006Z,54.66
2018-09-09T13:43:03.652Z,54.17
2018-09-09T13:45:31.555Z,54.66
2018-09-09T13:47:59.265Z,54.11
2018-09-09T13:50:26.917Z,54.01
2018-09-09T13:52:54.611Z,54.62
2018-09-09T13:55:22.261Z,54.73
2018-09-09T13:57:49.915Z,54.72
2018-09-09T14:00:17.549Z,54.20
2018-09-09T14:02:45.184Z,54.94
2018-09-09T14:05:12.815Z,54.76
2018-09-09T14:07:40.509Z,54.79
2018-09-09T14:10:08.486Z,54.58
2018-09-09T14:12:36.321Z,54.64
2018-09-09T14:15:04.140Z,53.86
2018-09-09T14:17:31.983Z,53.87
2018-09-09T14:19:59.725Z,53.88
2018-09-09T14:22:27.629Z,53.87
2018-09-09T14:24:55.360Z,54.70
2018-09-09T14:27:23.176Z,54.64
2018-09-09T14:29:50.925Z,53.88
2018-09-09T14:32:19.020Z,54.58
2018-09-09T14:34:46.845Z,54.52
2018-09-09T14:37:15.049Z,53.99
2018-09-09T14:39:42.922Z,53.99
2018-09-09T14:42:10.734Z,54.14
2018-09-09T14:44:38.536Z,53.81
2018-09-09T14:47:06.310Z,53.86
2018-09-09T14:49:34.150Z,54.51
2018-09-09T14:52:01.878Z,54.50
2018-09-09T14:54:29.613Z,54.45
2018-09-09T14:56:57.346Z,54.48
2018-09-09T14:59:25.002Z,54.68
2018-09-09T15:01:52.640Z,54.86
2018-09-09T15:04:20.287Z,54.70
2018-09-09T15:06:48.015Z,53.94
2018-09-09T15:09:15.669Z,53.97
2018-09-09T15:11:43.312Z,54.42
2018-09-09T15:14:11.102Z,54.08
2018-09-09T15:16:38.773Z,53.97
2018-09-09T15:19:06.565Z,54.37
2018-09-09T15:21:34.221Z,54.65
2018-09-09T15:24:01.886Z,53.85
2018-09-09T15:26:29.527Z,53.92
2018-09-09T15:28:57.232Z,53.89
2018-09-09T15:31:24.860Z,54.68
2018-09-09T15:33:52.621Z,53.91
2018-09-09T15:36:20.272Z,53.96
2018-09-09T15:38:48.029Z,53.97
2018-09-09T15:41:15.670Z,54.54
2018-09-09T15:43:43.361Z,53.83
2018-09-09T15:46:11.023Z,54.76
2018-09-09T15:48:38.672Z,53.81
2018-09-09T15:51:06.329Z,53.93
2018-09-09T15:53:33.980Z,54.44
2018-09-09T15:56:01.667Z,54.14
2018-09-09T15:58:29.302Z,54.56
2018-09-09T16:00:56.958Z,54.79
2018-09-09T16:03:24.590Z,54.74
2018-09-09T16:05:52.239Z,54.69
2018-09-09T16:08:19.875Z,54.71
2018-09-09T16:10:47.597Z,53.97
2018-09-09T16:13:15.230Z,53.87
2018-09-09T16:15:42.900Z,54.74
2018-09-09T16:18:10.580Z,54.15
2018-09-09T16:20:38.226Z,54.10
2018-09-09T16:23:05.893Z,53.98
2018-09-09T16:25:33.560Z,54.07
2018-09-09T16:28:01.187Z,54.82
2018-09-09T16:30:28.817Z,54.80
2018-09-09T16:32:56.458Z,54.61
2018-09-09T16:35:24.101Z,54.86
2018-09-09T16:37:51.712Z,54.72
2018-09-09T16:40:19.332Z,54.73
2018-09-09T16:42:46.963Z,54.55
2018-09-09T16:45:14.829Z,54.02
2018-09-09T16:47:42.448Z,54.71
2018-09-09T16:50:10.073Z,54.80
2018-09-09T16:52:37.708Z,54.08
2018-09-09T16:55:05.346Z,54.33
2018-09-09T16:57:32.974Z,54.70
2018-09-09T17:00:00.605Z,54.80
2018-09-09T17:02:28.326Z,54.78
2018-09-09T17:04:55.944Z,54.85
2018-09-09T17:07:23.722Z,54.82
2018-09-09T17:09:51.470Z,54.74
2018-09-09T17:12:19.192Z,54.56
2018-09-09T17:14:46.867Z,54.13
2018-09-09T17:17:14.549Z,54.82
2018-09-09T17:19:42.305Z,54.08
2018-09-09T17:22:10.058Z,54.11
2018-09-09T17:24:37.919Z,54.65
2018-09-09T17:27:05.706Z,54.24
2018-09-09T17:29:33.401Z,54.86
2018-09-09T17:32:01.107Z,54.15
2018-09-09T17:34:28.896Z,54.32
2018-09-09T17:36:56.668Z,54.88
2018-09-09T17:39:24.373Z,54.49
2018-09-09T17:41:52.194Z,54.95
2018-09-09T17:44:20.015Z,54.11
2018-09-09T17:46:47.757Z,54.85
2018-09-09T17:49:15.510Z,54.98
2018-09-09T17:51:43.252Z,54.86
2018-09-09T17:54:10.945Z,54.11
2018-09-09T17:56:38.660Z,54.43
2018-09-09T17:59:06.387Z,54.05
2018-09-09T18:01:34.176Z,54.04
2018-09-09T18:04:01.892Z,54.33
2018-09-09T18:06:29.583Z,54.36
2018-09-09T18:08:57.302Z,54.15
2018-09-09T18:11:25.105Z,54.83
2018-09-09T18:13:52.774Z,54.15
2018-09-09T18:16:20.651Z,54.72
2018-09-09T18:18:48.363Z,54.05
2018-09-09T18:21:16.158Z,54.21
2018-09-09T18:23:43.834Z,54.74
2018-09-09T18:26:11.532Z,54.30
2018-09-09T18:28:39.301Z,54.81
2018-09-09T18:31:07.014Z,54.35
2018-09-09T18:33:34.737Z,54.15
2018-09-09T18:36:02.551Z,54.14
2018-09-09T18:38:30.342Z,54.17
2018-09-09T18:40:58.085Z,54.17
2018-09-09T18:43:25.798Z,54.92
2018-09-09T18:45:53.554Z,54.90
2018-09-09T18:48:21.294Z,54.69
2018-09-09T18:50:49.147Z,54.85
2018-09-09T18:53:16.910Z,54.54
2018-09-09T18:55:44.612Z,54.93
2018-09-09T18:58:12.425Z,55.04
2018-09-09T19:00:40.140Z,54.67
2018-09-09T19:03:07.911Z,54.17
2018-09-09T19:05:35.609Z,54.28
2018-09-09T19:08:09.962Z,54.97
2018-09-09T19:10:37.687Z,55.00
2018-09-09T19:13:05.464Z,54.17
2018-09-09T19:15:33.288Z,54.38
2018-09-09T19:18:01.117Z,54.80
2018-09-09T19:20:28.837Z,55.03
2018-09-09T19:22:56.530Z,55.06
2018-09-09T19:25:25.332Z,55.00
2018-09-09T19:27:53.135Z,54.81
2018-09-09T19:30:20.884Z,54.99
2018-09-09T19:32:48.551Z,55.05
2018-09-09T19:35:16.201Z,54.30
2018-09-09T19:37:43.822Z,54.24
2018-09-09T19:40:17.977Z,54.81
2018-09-09T19:42:45.640Z,55.01
2018-09-09T19:45:13.359Z,54.30
2018-09-09T19:47:40.994Z,54.91
2018-09-09T19:50:08.649Z,54.40
2018-09-09T19:52:36.335Z,54.29
2018-09-09T19:55:04.101Z,54.38
2018-09-09T19:57:31.793Z,54.36
2018-09-09T19:59:59.582Z,55.11
2018-09-09T20:02:27.519Z,54.65
2018-09-09T20:05:01.784Z,55.24
2018-09-09T20:07:29.683Z,55.17
2018-09-09T20:09:57.459Z,55.10
2018-09-09T20:12:25.242Z,55.02
2018-09-09T20:14:53.107Z,55.07
2018-09-09T20:17:20.859Z,55.03
2018-09-09T20:19:48.634Z,54.55
2018-09-09T20:22:16.621Z,54.29
2018-09-09T20:24:44.343Z,54.36
2018-09-09T20:27:12.044Z,54.88
2018-09-09T20:29:39.812Z,54.30
2018-09-09T20:32:07.560Z,54.91
2018-09-09T20:34:35.397Z,55.11
2018-09-09T20:37:03.277Z,54.86
2018-09-09T20:39:31.020Z,54.56
2018-09-09T20:41:58.737Z,54.36
2018-09-09T20:44:26.460Z,54.42
2018-09-09T20:46:54.190Z,54.99
2018-09-09T20:49:21.930Z,54.89
2018-09-09T20:51:49.667Z,54.09
2018-09-09T20:54:17.478Z,54.45
2018-09-09T20:56:45.301Z,54.55
2018-09-09T20:59:13.083Z,54.88
2018-09-09T21:01:40.878Z,54.21
2018-09-09T21:04:08.606Z,55.00
2018-09-09T21:06:36.268Z,54.33
2018-09-09T21:09:04.411Z,54.34
2018-09-09T21:11:32.290Z,54.40
2018-09-09T21:13:59.976Z,54.46
2018-09-09T21:16:27.625Z,55.02
2018-09-09T21:18:55.331Z,54.11
2018-09-09T21:21:22.997Z,55.09
2018-09-09T21:23:50.676Z,55.10
2018-09-09T21:26:18.346Z,54.30
2018-09-09T21:28:46.074Z,54.56
2018-09-09T21:31:13.734Z,54.64
2018-09-09T21:33:41.531Z,54.86
2018-09-09T21:36:09.182Z,55.05
2018-09-09T21:38:36.897Z,54.81
2018-09-09T21:41:04.825Z,54.52
2018-09-09T21:43:32.504Z,54.41
2018-09-09T21:46:00.200Z,54.47
2018-09-09T21:48:27.887Z,55.19
2018-09-09T21:50:55.580Z,54.81
2018-09-09T21:53:23.302Z,55.25
2018-09-09T21:55:51.236Z,54.43
2018-09-09T21:58:18.954Z,54.05
2018-09-09T22:00:51.962Z,54.28
2018-09-09T22:03:19.687Z,54.36
2018-09-09T22:05:47.413Z,54.37
2018-09-09T22:08:15.195Z,54.44
2018-09-09T22:10:42.926Z,54.66
2018-09-09T22:13:10.614Z,54.41
2018-09-09T22:15:38.341Z,54.43
2018-09-09T22:18:06.107Z,54.60
2018-09-09T22:20:33.836Z,54.46
2018-09-09T22:23:01.622Z,55.08
2018-09-09T22:25:29.414Z,55.20
2018-09-09T22:27:57.122Z,54.53
2018-09-09T22:30:24.902Z,54.68
2018-09-09T22:32:52.653Z,55.18
2018-09-09T22:35:20.391Z,54.49
2018-09-09T22:37:48.087Z,55.12
2018-09-09T22:40:15.821Z,55.15
2018-09-09T22:42:43.551Z,55.17
2018-09-09T22:45:11.302Z,55.05
2018-09-09T22:47:39.001Z,54.44
2018-09-09T22:50:06.692Z,54.41
2018-09-09T22:52:34.415Z,54.23
2018-09-09T22:55:02.090Z,55.15
2018-09-09T22:57:29.801Z,54.69
2018-09-09T22:59:57.559Z,55.13
2018-09-09T23:02:25.286Z,55.07
2018-09-09T23:04:52.968Z,55.07
2018-09-09T23:07:20.746Z,54.31
2018-09-09T23:09:48.405Z,55.06
2018-09-09T23:12:16.185Z,54.47
2018-09-09T23:14:43.993Z,54.76
2018-09-09T23:17:11.687Z,54.38
2018-09-09T23:19:39.364Z,55.12
2018-09-09T23:22:07.033Z,54.62
2018-09-09T23:24:34.762Z,54.36
2018-09-09T23:27:02.451Z,54.92
2018-09-09T23:29:30.235Z,55.13
2018-09-09T23:31:57.984Z,55.12
2018-09-09T23:34:25.705Z,55.12
2018-09-09T23:36:53.454Z,54.55
2018-09-09T23:39:21.121Z,54.42
2018-09-09T23:41:48.859Z,54.93
2018-09-09T23:44:16.625Z,55.33
2018-09-09T23:46:44.354Z,55.14
2018-09-09T23:49:12.047Z,54.55
2018-09-09T23:51:39.756Z,54.48
2018-09-09T23:54:07.722Z,54.83
2018-09-09T23:56:35.434Z,54.53
2018-09-09T23:59:03.131Z,54.61
